Contact2017-01-16T18:42:02+00:00

Contact & Connect

262-AX-PILOT (297-4568) • info@flyaxiom.com

Your Name (required)

Your Email (required)

Your Message

Current METAR

KOGD 111753Z 15005KT 6SM HZ OVC018 M01/M04 A3032 RMK AO2 SLP284 T10061044 11006 21011 50005